sensor_id;sensor_type;location;lat;lon;timestamp;pressure;altitude;pressure_sealevel;temperature;humidity
27429;BME280;14881;48.092;11.574;2023-02-01T00:01:21;95956.06;;;3.37;100.00
27429;BME280;14881;48.092;11.574;2023-02-01T00:03:49;95946.38;;;3.36;100.00
27429;BME280;14881;48.092;11.574;2023-02-01T00:06:17;95951.97;;;3.34;100.00
27429;BME280;14881;48.092;11.574;2023-02-01T00:08:45;95948.72;;;3.32;100.00
27429;BME280;14881;48.092;11.574;2023-02-01T00:11:14;95947.19;;;3.36;100.00
27429;BME280;14881;48.092;11.574;2023-02-01T00:13:42;95930.28;;;3.36;100.00
27429;BME280;14881;48.092;11.574;2023-02-01T00:16:12;95933.09;;;3.41;100.00
27429;BME280;14881;48.092;11.574;2023-02-01T00:18:40;95937.16;;;3.43;100.00
27429;BME280;14881;48.092;11.574;2023-02-01T00:21:10;95931.81;;;3.43;100.00
27429;BME280;14881;48.092;11.574;2023-02-01T00:23:37;95927.47;;;3.42;100.00
27429;BME280;14881;48.092;11.574;2023-02-01T00:26:07;95927.84;;;3.46;100.00
27429;BME280;14881;48.092;11.574;2023-02-01T00:28:39;95932.38;;;3.45;100.00
27429;BME280;14881;48.092;11.574;2023-02-01T00:31:07;95920.81;;;3.45;100.00
27429;BME280;14881;48.092;11.574;2023-02-01T00:33:35;95923.25;;;3.46;100.00
27429;BME280;14881;48.092;11.574;2023-02-01T00:36:05;95923.25;;;3.46;100.00
27429;BME280;14881;48.092;11.574;2023-02-01T00:38:35;95922.56;;;3.51;100.00
27429;BME280;14881;48.092;11.574;2023-02-01T00:41:05;95916.28;;;3.45;100.00
27429;BME280;14881;48.092;11.574;2023-02-01T00:43:34;95914.16;;;3.47;100.00
27429;BME280;14881;48.092;11.574;2023-02-01T00:46:03;95922.09;;;3.42;100.00
27429;BME280;14881;48.092;11.574;2023-02-01T00:48:31;95919.06;;;3.39;100.00
27429;BME280;14881;48.092;11.574;2023-02-01T00:50:59;95921.28;;;3.30;100.00
27429;BME280;14881;48.092;11.574;2023-02-01T00:53:28;95919.53;;;3.24;100.00
27429;BME280;14881;48.092;11.574;2023-02-01T00:55:56;95926.06;;;3.17;100.00
27429;BME280;14881;48.092;11.574;2023-02-01T00:58:25;95932.72;;;3.14;100.00
27429;BME280;14881;48.092;11.574;2023-02-01T01:01:01;95926.06;;;2.93;100.00
27429;BME280;14881;48.092;11.574;2023-02-01T01:03:34;95925.50;;;2.61;100.00
27429;BME280;14881;48.092;11.574;2023-02-01T01:06:05;95921.75;;;2.51;100.00
27429;BME280;14881;48.092;11.574;2023-02-01T01:08:34;95928.53;;;2.53;100.00
27429;BME280;14881;48.092;11.574;2023-02-01T01:11:06;95915.72;;;2.55;100.00
27429;BME280;14881;48.092;11.574;2023-02-01T01:13:34;95925.03;;;2.53;100.00
27429;BME280;14881;48.092;11.574;2023-02-01T01:16:03;95929.78;;;2.51;100.00
27429;BME280;14881;48.092;11.574;2023-02-01T01:18:33;95921.38;;;2.47;100.00
27429;BME280;14881;48.092;11.574;2023-02-01T01:21:03;95917.56;;;2.55;100.00
27429;BME280;14881;48.092;11.574;2023-02-01T01:23:32;95922.13;;;2.54;100.00
27429;BME280;14881;48.092;11.574;2023-02-01T01:26:00;95914.88;;;2.55;100.00
27429;BME280;14881;48.092;11.574;2023-02-01T01:28:27;95924.34;;;2.57;100.00
27429;BME280;14881;48.092;11.574;2023-02-01T01:30:55;95909.88;;;2.58;100.00
27429;BME280;14881;48.092;11.574;2023-02-01T01:33:23;95925.25;;;2.51;100.00
27429;BME280;14881;48.092;11.574;2023-02-01T01:35:52;95908.19;;;2.45;100.00
27429;BME280;14881;48.092;11.574;2023-02-01T01:38:20;95924.75;;;2.42;100.00
27429;BME280;14881;48.092;11.574;2023-02-01T01:40:48;95920.53;;;2.35;100.00
27429;BME280;14881;48.092;11.574;2023-02-01T01:43:18;95926.94;;;2.34;100.00
27429;BME280;14881;48.092;11.574;2023-02-01T01:45:49;95923.28;;;2.28;100.00
27429;BME280;14881;48.092;11.574;2023-02-01T01:48:20;95916.19;;;2.22;100.00
27429;BME280;14881;48.092;11.574;2023-02-01T01:50:57;95912.69;;;2.22;100.00
27429;BME280;14881;48.092;11.574;2023-02-01T01:53:28;95903.22;;;2.19;100.00
27429;BME280;14881;48.092;11.574;2023-02-01T01:55:58;95900.56;;;2.19;100.00
27429;BME280;14881;48.092;11.574;2023-02-01T01:58:27;95894.81;;;2.16;100.00
27429;BME280;14881;48.092;11.574;2023-02-01T02:00:56;95881.06;;;2.12;100.00
27429;BME280;14881;48.092;11.574;2023-02-01T02:03:31;95877.56;;;2.12;100.00
27429;BME280;14881;48.092;11.574;2023-02-01T02:06:04;95875.09;;;2.10;100.00
27429;BME280;14881;48.092;11.574;2023-02-01T02:08:35;95876.97;;;2.09;100.00
27429;BME280;14881;48.092;11.574;2023-02-01T02:11:03;95874.88;;;2.12;100.00
27429;BME280;14881;48.092;11.574;2023-02-01T02:13:32;95869.97;;;2.08;100.00
27429;BME280;14881;48.092;11.574;2023-02-01T02:16:17;95887.34;;;2.06;100.00
27429;BME280;14881;48.092;11.574;2023-02-01T02:18:57;95877.56;;;2.12;100.00
27429;BME280;14881;48.092;11.574;2023-02-01T02:21:46;95876.66;;;2.18;100.00
27429;BME280;14881;48.092;11.574;2023-02-01T02:24:43;95888.41;;;2.17;100.00
27429;BME280;14881;48.092;11.574;2023-02-01T02:27:29;95897.19;;;2.24;100.00
27429;BME280;14881;48.092;11.574;2023-02-01T02:30:41;95894.19;;;2.32;100.00
27429;BME280;14881;48.092;11.574;2023-02-01T02:36:19;95897.38;;;2.40;100.00
27429;BME280;14881;48.092;11.574;2023-02-01T02:38:58;95892.00;;;2.40;100.00
27429;BME280;14881;48.092;11.574;2023-02-01T02:41:33;95895.50;;;2.41;100.00
27429;BME280;14881;48.092;11.574;2023-02-01T02:44:28;95888.38;;;2.47;100.00
27429;BME280;14881;48.092;11.574;2023-02-01T02:47:23;95893.53;;;2.48;100.00
27429;BME280;14881;48.092;11.574;2023-02-01T02:49:58;95875.94;;;2.52;100.00
27429;BME280;14881;48.092;11.574;2023-02-01T02:52:58;95875.25;;;2.57;100.00
27429;BME280;14881;48.092;11.574;2023-02-01T02:55:45;95871.75;;;2.56;100.00
27429;BME280;14881;48.092;11.574;2023-02-01T02:58:13;95880.16;;;2.60;100.00
27429;BME280;14881;48.092;11.574;2023-02-01T03:01:01;95865.22;;;2.64;100.00
27429;BME280;14881;48.092;11.574;2023-02-01T03:03:48;95882.94;;;2.65;100.00
27429;BME280;14881;48.092;11.574;2023-02-01T03:06:39;95872.69;;;2.62;100.00
27429;BME280;14881;48.092;11.574;2023-02-01T03:09:13;95870.00;;;2.62;100.00
27429;BME280;14881;48.092;11.574;2023-02-01T03:11:48;95866.03;;;2.64;100.00
27429;BME280;14881;48.092;11.574;2023-02-01T03:14:36;95860.81;;;2.69;100.00
27429;BME280;14881;48.092;11.574;2023-02-01T03:17:09;95867.00;;;2.70;100.00
27429;BME280;14881;48.092;11.574;2023-02-01T03:19:40;95852.53;;;2.71;100.00
27429;BME280;14881;48.092;11.574;2023-02-01T03:22:18;95858.25;;;2.74;100.00
27429;BME280;14881;48.092;11.574;2023-02-01T03:24:50;95857.44;;;2.74;100.00
27429;BME280;14881;48.092;11.574;2023-02-01T03:27:24;95860.13;;;2.74;100.00
27429;BME280;14881;48.092;11.574;2023-02-01T03:29:59;95856.63;;;2.73;100.00
27429;BME280;14881;48.092;11.574;2023-02-01T03:32:29;95849.41;;;2.74;100.00
27429;BME280;14881;48.092;11.574;2023-02-01T03:35:17;95859.19;;;2.80;100.00
27429;BME280;14881;48.092;11.574;2023-02-01T03:37:50;95860.44;;;2.77;100.00
27429;BME280;14881;48.092;11.574;2023-02-01T03:40:18;95850.09;;;2.81;100.00
27429;BME280;14881;48.092;11.574;2023-02-01T03:42:50;95850.91;;;2.82;100.00
27429;BME280;14881;48.092;11.574;2023-02-01T03:45:24;95852.75;;;2.81;100.00
27429;BME280;14881;48.092;11.574;2023-02-01T03:47:58;95841.00;;;2.82;100.00
27429;BME280;14881;48.092;11.574;2023-02-01T03:50:28;95844.50;;;2.83;100.00
27429;BME280;14881;48.092;11.574;2023-02-01T03:53:01;95825.03;;;2.87;100.00
27429;BME280;14881;48.092;11.574;2023-02-01T03:55:31;95836.91;;;2.91;100.00
27429;BME280;14881;48.092;11.574;2023-02-01T03:58:04;95830.50;;;2.92;100.00
27429;BME280;14881;48.092;11.574;2023-02-01T04:00:33;95825.16;;;2.92;100.00
27429;BME280;14881;48.092;11.574;2023-02-01T04:03:02;95835.06;;;2.92;100.00
27429;BME280;14881;48.092;11.574;2023-02-01T04:05:31;95837.25;;;2.95;100.00
27429;BME280;14881;48.092;11.574;2023-02-01T04:08:00;95830.13;;;3.00;100.00
27429;BME280;14881;48.092;11.574;2023-02-01T04:10:28;95828.28;;;3.01;100.00
27429;BME280;14881;48.092;11.574;2023-02-01T04:12:56;95837.97;;;3.02;100.00
27429;BME280;14881;48.092;11.574;2023-02-01T04:15:24;95829.56;;;2.98;100.00
27429;BME280;14881;48.092;11.574;2023-02-01T04:17:52;95830.13;;;3.00;100.00
27429;BME280;14881;48.092;11.574;2023-02-01T04:20:19;95835.41;;;3.07;100.00
27429;BME280;14881;48.092;11.574;2023-02-01T04:22:48;95835.41;;;3.07;100.00
27429;BME280;14881;48.092;11.574;2023-02-01T04:25:17;95836.22;;;3.07;100.00
27429;BME280;14881;48.092;11.574;2023-02-01T04:27:45;95830.63;;;3.09;100.00
27429;BME280;14881;48.092;11.574;2023-02-01T04:30:13;95827.69;;;3.10;100.00
27429;BME280;14881;48.092;11.574;2023-02-01T04:32:40;95834.34;;;3.08;100.00
27429;BME280;14881;48.092;11.574;2023-02-01T04:35:08;95817.19;;;3.09;100.00
27429;BME280;14881;48.092;11.574;2023-02-01T04:37:38;95827.34;;;3.07;100.00
27429;BME280;14881;48.092;11.574;2023-02-01T04:40:06;95819.75;;;3.04;100.00
27429;BME280;14881;48.092;11.574;2023-02-01T04:42:36;95814.97;;;3.06;100.00
27429;BME280;14881;48.092;11.574;2023-02-01T04:45:04;95814.84;;;3.01;100.00
27429;BME280;14881;48.092;11.574;2023-02-01T04:47:32;95833.28;;;2.97;100.00
27429;BME280;14881;48.092;11.574;2023-02-01T04:50:00;95842.97;;;2.98;100.00
27429;BME280;14881;48.092;11.574;2023-02-01T04:52:28;95833.63;;;3.01;100.00
27429;BME280;14881;48.092;11.574;2023-02-01T04:54:56;95844.16;;;3.02;100.00
27429;BME280;14881;48.092;11.574;2023-02-01T04:57:26;95844.97;;;3.03;100.00
27429;BME280;14881;48.092;11.574;2023-02-01T04:59:55;95828.75;;;3.09;100.00
27429;BME280;14881;48.092;11.574;2023-02-01T05:02:23;95828.16;;;3.07;100.00
27429;BME280;14881;48.092;11.574;2023-02-01T05:04:51;95820.94;;;3.08;100.00
27429;BME280;14881;48.092;11.574;2023-02-01T05:07:18;95817.31;;;3.02;100.00
27429;BME280;14881;48.092;11.574;2023-02-01T05:09:46;95825.94;;;3.04;100.00
27429;BME280;14881;48.092;11.574;2023-02-01T05:12:14;95823.03;;;3.06;100.00
27429;BME280;14881;48.092;11.574;2023-02-01T05:15:00;95817.44;;;3.07;100.00
27429;BME280;14881;48.092;11.574;2023-02-01T05:17:28;95837.50;;;3.05;100.00
27429;BME280;14881;48.092;11.574;2023-02-01T05:19:56;95838.78;;;3.02;100.00
27429;BME280;14881;48.092;11.574;2023-02-01T05:22:24;95833.53;;;3.07;100.00
27429;BME280;14881;48.092;11.574;2023-02-01T05:24:52;95834.00;;;3.04;100.00
27429;BME280;14881;48.092;11.574;2023-02-01T05:27:19;95836.44;;;3.06;100.00
27429;BME280;14881;48.092;11.574;2023-02-01T05:29:49;95836.22;;;3.07;100.00
27429;BME280;14881;48.092;11.574;2023-02-01T05:32:18;95825.47;;;3.07;100.00
27429;BME280;14881;48.092;11.574;2023-02-01T05:34:48;95840.78;;;3.07;100.00
27429;BME280;14881;48.092;11.574;2023-02-01T05:37:16;95855.00;;;3.07;100.00
27429;BME280;14881;48.092;11.574;2023-02-01T05:39:44;95838.31;;;3.05;100.00
27429;BME280;14881;48.092;11.574;2023-02-01T05:42:12;95847.66;;;3.03;100.00
27429;BME280;14881;48.092;11.574;2023-02-01T05:44:39;95835.63;;;3.05;100.00
27429;BME280;14881;48.092;11.574;2023-02-01T05:47:07;95836.91;;;3.03;100.00
27429;BME280;14881;48.092;11.574;2023-02-01T05:49:36;95822.69;;;3.02;100.00
27429;BME280;14881;48.092;11.574;2023-02-01T05:52:04;95827.69;;;3.10;100.00
27429;BME280;14881;48.092;11.574;2023-02-01T05:54:32;95831.22;;;3.11;100.00
27429;BME280;14881;48.092;11.574;2023-02-01T05:56:59;95844.84;;;3.09;100.00
27429;BME280;14881;48.092;11.574;2023-02-01T05:59:27;95821.53;;;3.10;100.00
27429;BME280;14881;48.092;11.574;2023-02-01T06:01:55;95829.81;;;3.08;100.00
27429;BME280;14881;48.092;11.574;2023-02-01T06:04:23;95830.38;;;3.10;100.00
27429;BME280;14881;48.092;11.574;2023-02-01T06:06:52;95840.88;;;3.12;100.00
27429;BME280;14881;48.092;11.574;2023-02-01T06:09:20;95834.81;;;3.05;100.00
27429;BME280;14881;48.092;11.574;2023-02-01T06:11:48;95829.56;;;3.10;100.00
27429;BME280;14881;48.092;11.574;2023-02-01T06:14:16;95825.72;;;3.06;100.00
27429;BME280;14881;48.092;11.574;2023-02-01T06:16:43;95827.34;;;3.07;100.00
27429;BME280;14881;48.092;11.574;2023-02-01T06:19:13;95828.03;;;3.14;100.00
27429;BME280;14881;48.092;11.574;2023-02-01T06:21:41;95811.09;;;3.13;100.00
27429;BME280;14881;48.092;11.574;2023-02-01T06:24:10;95820.47;;;3.11;100.00
27429;BME280;14881;48.092;11.574;2023-02-01T06:26:37;95826.88;;;3.10;100.00
27429;BME280;14881;48.092;11.574;2023-02-01T06:29:06;95837.63;;;3.10;100.00
27429;BME280;14881;48.092;11.574;2023-02-01T06:31:34;95832.25;;;3.10;100.00
27429;BME280;14881;48.092;11.574;2023-02-01T06:34:02;95833.88;;;3.11;100.00
27429;BME280;14881;48.092;11.574;2023-02-01T06:36:30;95833.31;;;3.09;100.00
27429;BME280;14881;48.092;11.574;2023-02-01T06:38:58;95827.69;;;3.10;100.00
27429;BME280;14881;48.092;11.574;2023-02-01T06:41:28;95836.31;;;3.12;100.00
27429;BME280;14881;48.092;11.574;2023-02-01T06:43:55;95849.50;;;3.14;100.00
27429;BME280;14881;48.092;11.574;2023-02-01T06:46:23;95838.75;;;3.14;100.00
27429;BME280;14881;48.092;11.574;2023-02-01T06:48:51;95842.38;;;3.20;100.00
27429;BME280;14881;48.092;11.574;2023-02-01T06:51:20;95828.72;;;3.21;100.00
27429;BME280;14881;48.092;11.574;2023-02-01T06:53:49;95828.72;;;3.21;100.00
27429;BME280;14881;48.092;11.574;2023-02-01T06:56:17;95841.81;;;3.18;100.00
27429;BME280;14881;48.092;11.574;2023-02-01T06:58:48;95832.22;;;3.22;100.00
27429;BME280;14881;48.092;11.574;2023-02-01T07:01:16;95825.94;;;3.28;100.00
27429;BME280;14881;48.092;11.574;2023-02-01T07:03:47;95826.16;;;3.26;100.00
27429;BME280;14881;48.092;11.574;2023-02-01T07:06:15;95824.06;;;3.28;100.00
27429;BME280;14881;48.092;11.574;2023-02-01T07:08:43;95820.56;;;3.28;100.00
27429;BME280;14881;48.092;11.574;2023-02-01T07:11:13;95809.81;;;3.28;100.00
27429;BME280;14881;48.092;11.574;2023-02-01T07:13:41;95816.72;;;3.24;100.00
27429;BME280;14881;48.092;11.574;2023-02-01T07:16:13;95823.25;;;3.28;100.00
27429;BME280;14881;48.092;11.574;2023-02-01T07:18:41;95814.16;;;3.29;100.00
27429;BME280;14881;48.092;11.574;2023-02-01T07:21:09;95812.84;;;3.31;100.00
27429;BME280;14881;48.092;11.574;2023-02-01T07:23:37;95835.94;;;3.32;100.00
27429;BME280;14881;48.092;11.574;2023-02-01T07:26:06;95819.00;;;3.32;100.00
27429;BME280;14881;48.092;11.574;2023-02-01T07:28:35;95791.47;;;3.36;100.00
27429;BME280;14881;48.092;11.574;2023-02-01T07:31:04;95800.34;;;3.37;100.00
27429;BME280;14881;48.092;11.574;2023-02-01T07:33:34;95795.78;;;3.37;100.00
27429;BME280;14881;48.092;11.574;2023-02-01T07:36:04;95789.38;;;3.38;100.00
27429;BME280;14881;48.092;11.574;2023-02-01T07:38:32;95778.38;;;3.40;100.00
27429;BME280;14881;48.092;11.574;2023-02-01T07:41:01;95774.75;;;3.46;100.00
27429;BME280;14881;48.092;11.574;2023-02-01T07:43:29;95772.63;;;3.48;100.00
27429;BME280;14881;48.092;11.574;2023-02-01T07:45:57;95780.69;;;3.48;100.00
27429;BME280;14881;48.092;11.574;2023-02-01T07:48:26;95783.25;;;3.55;100.00
27429;BME280;14881;48.092;11.574;2023-02-01T07:50:59;95777.63;;;3.56;100.00
27429;BME280;14881;48.092;11.574;2023-02-01T07:53:29;95770.16;;;3.58;100.00
27429;BME280;14881;48.092;11.574;2023-02-01T07:55:57;95764.53;;;3.60;100.00
27429;BME280;14881;48.092;11.574;2023-02-01T07:58:26;95770.50;;;3.62;100.00
27429;BME280;14881;48.092;11.574;2023-02-01T08:00:54;95785.88;;;3.66;100.00
27429;BME280;14881;48.092;11.574;2023-02-01T08:03:40;95792.06;;;3.67;100.00
27429;BME280;14881;48.092;11.574;2023-02-01T08:06:09;95797.56;;;3.72;100.00
27429;BME280;14881;48.092;11.574;2023-02-01T08:08:37;95795.44;;;3.74;100.00
27429;BME280;14881;48.092;11.574;2023-02-01T08:11:06;95810.84;;;3.78;100.00
27429;BME280;14881;48.092;11.574;2023-02-01T08:13:34;95805.31;;;3.85;100.00
27429;BME280;14881;48.092;11.574;2023-02-01T08:16:04;95815.69;;;3.93;100.00
27429;BME280;14881;48.092;11.574;2023-02-01T08:18:33;95817.81;;;3.91;100.00
27429;BME280;14881;48.092;11.574;2023-02-01T08:21:03;95839.88;;;3.93;100.00
27429;BME280;14881;48.092;11.574;2023-02-01T08:23:33;95834.03;;;3.96;100.00
27429;BME280;14881;48.092;11.574;2023-02-01T08:26:06;95821.41;;;3.97;100.00
27429;BME280;14881;48.092;11.574;2023-02-01T08:28:34;95821.84;;;4.05;100.00
27429;BME280;14881;48.092;11.574;2023-02-01T08:31:05;95824.03;;;4.08;100.00
27429;BME280;14881;48.092;11.574;2023-02-01T08:33:33;95819.81;;;4.12;100.00
27429;BME280;14881;48.092;11.574;2023-02-01T08:36:01;95829.28;;;4.15;100.00
27429;BME280;14881;48.092;11.574;2023-02-01T08:38:29;95850.78;;;4.15;100.00
27429;BME280;14881;48.092;11.574;2023-02-01T08:41:04;95848.41;;;4.18;100.00
27429;BME280;14881;48.092;11.574;2023-02-01T08:43:31;95853.56;;;4.20;100.00
27429;BME280;14881;48.092;11.574;2023-02-01T08:45:59;95832.38;;;4.24;100.00
27429;BME280;14881;48.092;11.574;2023-02-01T08:48:27;95838.19;;;4.32;100.00
27429;BME280;14881;48.092;11.574;2023-02-01T08:50:55;95834.75;;;4.37;100.00
27429;BME280;14881;48.092;11.574;2023-02-01T08:53:23;95824.09;;;4.42;100.00
27429;BME280;14881;48.092;11.574;2023-02-01T08:55:51;95817.44;;;4.44;100.00
27429;BME280;14881;48.092;11.574;2023-02-01T08:58:20;95831.22;;;4.48;100.00
27429;BME280;14881;48.092;11.574;2023-02-01T09:00:48;95836.06;;;4.51;100.00
27429;BME280;14881;48.092;11.574;2023-02-01T09:03:16;95838.22;;;4.49;100.00
27429;BME280;14881;48.092;11.574;2023-02-01T09:05:44;95817.00;;;4.52;100.00
27429;BME280;14881;48.092;11.574;2023-02-01T09:08:15;95833.47;;;4.56;100.00
27429;BME280;14881;48.092;11.574;2023-02-01T09:10:45;95831.78;;;4.50;100.00
27429;BME280;14881;48.092;11.574;2023-02-01T09:13:12;95831.03;;;4.54;100.00
27429;BME280;14881;48.092;11.574;2023-02-01T09:15:42;95833.25;;;4.58;100.00
27429;BME280;14881;48.092;11.574;2023-02-01T09:18:09;95831.38;;;4.58;100.00
27429;BME280;14881;48.092;11.574;2023-02-01T09:20:37;95835.22;;;4.62;100.00
27429;BME280;14881;48.092;11.574;2023-02-01T09:23:05;95830.47;;;4.69;100.00
27429;BME280;14881;48.092;11.574;2023-02-01T09:25:33;95848.81;;;4.72;100.00
27429;BME280;14881;48.092;11.574;2023-02-01T09:28:01;95830.31;;;4.76;100.00
27429;BME280;14881;48.092;11.574;2023-02-01T09:30:33;95837.09;;;4.78;100.00
27429;BME280;14881;48.092;11.574;2023-02-01T09:33:02;95837.41;;;4.82;100.00
27429;BME280;14881;48.092;11.574;2023-02-01T09:35:30;95826.66;;;4.82;100.00
27429;BME280;14881;48.092;11.574;2023-02-01T09:37:58;95828.09;;;4.89;100.00
27429;BME280;14881;48.092;11.574;2023-02-01T09:40:26;95835.78;;;4.98;100.00
27429;BME280;14881;48.092;11.574;2023-02-01T09:43:15;95840.72;;;5.06;100.00
27429;BME280;14881;48.092;11.574;2023-02-01T09:45:51;95844.66;;;5.15;100.00
27429;BME280;14881;48.092;11.574;2023-02-01T09:48:27;95834.75;;;5.20;100.00
27429;BME280;14881;48.092;11.574;2023-02-01T09:50:58;95833.19;;;5.24;100.00
27429;BME280;14881;48.092;11.574;2023-02-01T09:53:30;95823.00;;;5.27;100.00
27429;BME280;14881;48.092;11.574;2023-02-01T09:56:05;95834.44;;;5.17;100.00
27429;BME280;14881;48.092;11.574;2023-02-01T09:58:35;95841.38;;;5.13;100.00
27429;BME280;14881;48.092;11.574;2023-02-01T10:01:08;95840.81;;;5.11;100.00
27429;BME280;14881;48.092;11.574;2023-02-01T10:03:39;95834.94;;;5.14;100.00
27429;BME280;14881;48.092;11.574;2023-02-01T10:06:19;95858.53;;;5.07;100.00
27429;BME280;14881;48.092;11.574;2023-02-01T10:11:53;95835.22;;;4.96;100.00
27429;BME280;14881;48.092;11.574;2023-02-01T10:14:41;95826.88;;;4.97;100.00
27429;BME280;14881;48.092;11.574;2023-02-01T10:17:22;95845.63;;;5.09;100.00
27429;BME280;14881;48.092;11.574;2023-02-01T10:20:03;95845.53;;;5.04;100.00
27429;BME280;14881;48.092;11.574;2023-02-01T10:22:40;95851.44;;;5.01;100.00
27429;BME280;14881;48.092;11.574;2023-02-01T10:25:32;95847.59;;;5.13;100.00
27429;BME280;14881;48.092;11.574;2023-02-01T10:28:03;95848.16;;;5.15;100.00
27429;BME280;14881;48.092;11.574;2023-02-01T10:30:37;95844.91;;;5.13;100.00
27429;BME280;14881;48.092;11.574;2023-02-01T10:33:15;95847.41;;;5.03;100.00
27429;BME280;14881;48.092;11.574;2023-02-01T10:35:46;95844.72;;;5.03;100.00
27429;BME280;14881;48.092;11.574;2023-02-01T10:38:20;95847.59;;;5.13;100.00
27429;BME280;14881;48.092;11.574;2023-02-01T10:40:51;95844.69;;;5.20;100.00
27429;BME280;14881;48.092;11.574;2023-02-01T10:43:20;95845.38;;;5.10;100.00
27429;BME280;14881;48.092;11.574;2023-02-01T10:45:47;95839.91;;;5.05;100.00
27429;BME280;14881;48.092;11.574;2023-02-01T10:48:15;95847.03;;;5.11;100.00
27429;BME280;14881;48.092;11.574;2023-02-01T10:50:50;95847.84;;;5.12;100.00
27429;BME280;14881;48.092;11.574;2023-02-01T10:53:24;95855.22;;;5.21;100.00
27429;BME280;14881;48.092;11.574;2023-02-01T10:55:54;95848.41;;;5.14;100.00
27429;BME280;14881;48.092;11.574;2023-02-01T10:58:27;95845.53;;;5.04;100.00
27429;BME280;14881;48.092;11.574;2023-02-01T11:01:00;95836.91;;;5.02;100.00
27429;BME280;14881;48.092;11.574;2023-02-01T11:03:36;95853.78;;;5.14;100.00
27429;BME280;14881;48.092;11.574;2023-02-01T11:06:13;95872.41;;;5.15;100.00
27429;BME280;14881;48.092;11.574;2023-02-01T11:08:47;95867.50;;;4.96;100.00
27429;BME280;14881;48.092;11.574;2023-02-01T11:11:16;95867.28;;;4.80;100.00
27429;BME280;14881;48.092;11.574;2023-02-01T11:13:52;95862.38;;;4.77;100.00
27429;BME280;14881;48.092;11.574;2023-02-01T11:16:20;95860.88;;;4.86;100.00
27429;BME280;14881;48.092;11.574;2023-02-01T11:18:53;95871.59;;;4.98;100.00
27429;BME280;14881;48.092;11.574;2023-02-01T11:21:24;95870.13;;;4.90;100.00
27429;BME280;14881;48.092;11.574;2023-02-01T11:23:53;95861.22;;;4.90;100.00
27429;BME280;14881;48.092;11.574;2023-02-01T11:26:22;95861.22;;;4.90;100.00
27429;BME280;14881;48.092;11.574;2023-02-01T11:28:54;95857.91;;;4.83;100.00
27429;BME280;14881;48.092;11.574;2023-02-01T11:31:26;95866.94;;;4.94;100.00
27429;BME280;14881;48.092;11.574;2023-02-01T11:33:58;95878.03;;;4.80;100.00
27429;BME280;14881;48.092;11.574;2023-02-01T11:36:31;95871.88;;;4.68;100.00
27429;BME280;14881;48.092;11.574;2023-02-01T11:39:21;95875.91;;;4.66;100.00
27429;BME280;14881;48.092;11.574;2023-02-01T11:41:56;95875.91;;;4.66;100.00
27429;BME280;14881;48.092;11.574;2023-02-01T11:44:31;95864.91;;;4.67;100.00
27429;BME280;14881;48.092;11.574;2023-02-01T11:47:18;95872.41;;;4.65;100.00
27429;BME280;14881;48.092;11.574;2023-02-01T11:49:47;95863.81;;;4.68;100.00
27429;BME280;14881;48.092;11.574;2023-02-01T11:52:26;95851.03;;;4.75;100.00
27429;BME280;14881;48.092;11.574;2023-02-01T11:55:10;95863.66;;;4.75;100.00
27429;BME280;14881;48.092;11.574;2023-02-01T11:57:55;95857.78;;;4.61;100.00
27429;BME280;14881;48.092;11.574;2023-02-01T12:00:36;95868.22;;;4.58;100.00
27429;BME280;14881;48.092;11.574;2023-02-01T12:03:35;95862.59;;;4.59;100.00
27429;BME280;14881;48.092;11.574;2023-02-01T12:06:08;95841.97;;;4.48;100.00
27429;BME280;14881;48.092;11.574;2023-02-01T12:08:54;95852.56;;;4.54;100.00
27429;BME280;14881;48.092;11.574;2023-02-01T12:11:35;95838.88;;;4.56;100.00
27429;BME280;14881;48.092;11.574;2023-02-01T12:14:18;95828.09;;;4.56;100.00
27429;BME280;14881;48.092;11.574;2023-02-01T12:16:56;95842.47;;;4.62;100.00
27429;BME280;14881;48.092;11.574;2023-02-01T12:19:41;95831.59;;;4.57;100.00
27429;BME280;14881;48.092;11.574;2023-02-01T12:22:21;95817.81;;;4.70;100.00
27429;BME280;14881;48.092;11.574;2023-02-01T12:25:09;95828.19;;;4.61;100.00
27429;BME280;14881;48.092;11.574;2023-02-01T12:27:53;95826.81;;;4.59;100.00
27429;BME280;14881;48.092;11.574;2023-02-01T12:30:52;95822.00;;;4.44;100.00
27429;BME280;14881;48.092;11.574;2023-02-01T12:33:31;95831.34;;;4.41;100.00
27429;BME280;14881;48.092;11.574;2023-02-01T12:36:12;95825.06;;;4.36;100.00
27429;BME280;14881;48.092;11.574;2023-02-01T12:38:53;95830.59;;;4.29;100.00
27429;BME280;14881;48.092;11.574;2023-02-01T12:41:43;95843.25;;;4.29;100.00
27429;BME280;14881;48.092;11.574;2023-02-01T12:44:24;95832.16;;;4.25;100.00
27429;BME280;14881;48.092;11.574;2023-02-01T12:46:57;95837.03;;;4.28;100.00
27429;BME280;14881;48.092;11.574;2023-02-01T12:49:34;95826.88;;;4.30;100.00
27429;BME280;14881;48.092;11.574;2023-02-01T12:52:10;95818.78;;;4.30;100.00
27429;BME280;14881;48.092;11.574;2023-02-01T12:54:43;95804.28;;;4.31;100.00
27429;BME280;14881;48.092;11.574;2023-02-01T12:57:17;95798.69;;;4.33;100.00
27429;BME280;14881;48.092;11.574;2023-02-01T12:59:51;95801.66;;;4.36;100.00
27429;BME280;14881;48.092;11.574;2023-02-01T13:02:25;95792.63;;;4.42;100.00
27429;BME280;14881;48.092;11.574;2023-02-01T13:05:00;95796.16;;;4.43;100.00
27429;BME280;14881;48.092;11.574;2023-02-01T13:07:34;95790.03;;;4.47;100.00
27429;BME280;14881;48.092;11.574;2023-02-01T13:10:11;95793.22;;;4.44;100.00
27429;BME280;14881;48.092;11.574;2023-02-01T13:12:47;95786.34;;;4.53;100.00
27429;BME280;14881;48.092;11.574;2023-02-01T13:15:20;95789.94;;;4.59;100.00
27429;BME280;14881;48.092;11.574;2023-02-01T13:17:49;95779.91;;;4.54;100.00
27429;BME280;14881;48.092;11.574;2023-02-01T13:20:24;95778.94;;;4.61;100.00
27429;BME280;14881;48.092;11.574;2023-02-01T13:22:58;95778.72;;;4.62;100.00